createdAt,value
2022-09-23T00:00:06.860Z,94934.56
2022-09-23T00:01:11.079Z,94938.13
2022-09-23T00:02:12.799Z,94942.41
2022-09-23T00:03:16.120Z,94931.97
2022-09-23T00:04:17.631Z,94932.53
2022-09-23T00:05:19.169Z,94931.78
2022-09-23T00:06:23.609Z,94935.53
2022-09-23T00:07:25.265Z,94937.03
2022-09-23T00:08:26.885Z,94928.81
2022-09-23T00:09:28.464Z,94932.75
2022-09-23T00:10:31.244Z,94932.94
2022-09-23T00:11:32.835Z,94929.59
2022-09-23T00:12:34.391Z,94935.19
2022-09-23T00:13:37.658Z,94926.03
2022-09-23T00:14:39.762Z,94924.53
2022-09-23T00:15:41.320Z,94931.44
2022-09-23T00:16:42.935Z,94924.34
2022-09-23T00:17:45.209Z,94924.34
2022-09-23T00:18:46.909Z,94926.59
2022-09-23T00:19:48.822Z,94921.34
2022-09-23T00:20:50.332Z,94920.03
2022-09-23T00:21:51.897Z,94918.75
2022-09-23T00:22:53.428Z,94925.84
2022-09-23T00:23:55.075Z,94922.84
2022-09-23T00:24:56.583Z,94924.13
2022-09-23T00:25:59.848Z,94926.38
2022-09-23T00:27:01.473Z,94924.88
2022-09-23T00:28:03.282Z,94929.16
2022-09-23T00:29:04.930Z,94922.84
2022-09-23T00:30:08.804Z,94922.09
2022-09-23T00:31:14.567Z,94921.34
2022-09-23T00:32:16.235Z,94921.56
2022-09-23T00:33:17.873Z,94920.03
2022-09-23T00:34:19.647Z,94924.34
2022-09-23T00:35:21.218Z,94923.56
2022-09-23T00:36:23.132Z,94921.56
2022-09-23T00:37:24.917Z,94924.34
2022-09-23T00:38:26.424Z,94921.56
2022-09-23T00:39:27.966Z,94920.03
2022-09-23T00:40:29.572Z,94915.75
2022-09-23T00:41:31.190Z,94922.09
2022-09-23T00:42:32.711Z,94921.34
2022-09-23T00:43:41.201Z,94916.09
2022-09-23T00:44:51.430Z,94923.94
2022-09-23T00:45:53.006Z,94926.94
2022-09-23T00:46:54.608Z,94925.44
2022-09-23T00:48:06.123Z,94922.78
2022-09-23T00:49:15.367Z,94920.94
2022-09-23T00:50:30.203Z,94917.91
2022-09-23T00:51:37.784Z,94920.59
2022-09-23T00:52:39.593Z,94917.06
2022-09-23T00:53:41.917Z,94926.94
2022-09-23T00:54:46.255Z,94921.16
2022-09-23T00:55:56.002Z,94923.72
2022-09-23T00:56:59.986Z,94915.56
2022-09-23T00:58:05.924Z,94919.84
2022-09-23T00:59:09.762Z,94929.09
2022-09-23T01:00:11.818Z,94926.13
2022-09-23T01:01:16.750Z,94923.06
2022-09-23T01:02:21.100Z,94924.38
2022-09-23T01:03:23.011Z,94923.06
2022-09-23T01:04:26.758Z,94921.84
2022-09-23T01:05:28.489Z,94921.41
2022-09-23T01:06:30.920Z,94928.25
2022-09-23T01:07:32.537Z,94923.78
2022-09-23T01:08:34.105Z,94924.88
2022-09-23T01:09:36.150Z,94928.97
2022-09-23T01:10:59.295Z,94924.66
2022-09-23T01:12:19.338Z,94921.88
2022-09-23T01:13:38.726Z,94920.78
2022-09-23T01:14:52.904Z,94926.38
2022-09-23T01:16:02.512Z,94926.38
2022-09-23T01:17:07.346Z,94923.78
2022-09-23T01:18:14.061Z,94928.06
2022-09-23T01:19:44.678Z,94919.88
2022-09-23T01:21:16.714Z,94923.16
2022-09-23T01:22:55.761Z,94929.72
2022-09-23T01:24:31.626Z,94916.28
2022-09-23T01:26:11.186Z,94923.38
2022-09-23T01:27:19.266Z,94925.28
2022-09-23T01:28:33.369Z,94923.38
2022-09-23T01:30:12.879Z,94922.53
2022-09-23T01:31:33.265Z,94932.22
2022-09-23T01:32:37.644Z,94931.56
2022-09-23T01:34:10.195Z,94926.63
2022-09-23T01:35:45.586Z,94929.66
2022-09-23T01:37:06.254Z,94931.88
2022-09-23T01:38:13.904Z,94933.25
2022-09-23T01:39:43.247Z,94932.28
2022-09-23T01:41:06.819Z,94935.66
2022-09-23T01:42:13.960Z,94931.75
2022-09-23T01:43:25.691Z,94935.31
2022-09-23T01:44:39.169Z,94936.06
2022-09-23T01:45:46.245Z,94943.69
2022-09-23T01:46:56.797Z,94938.63
2022-09-23T01:48:10.427Z,94940.16
2022-09-23T01:49:31.493Z,94943.81
2022-09-23T01:50:56.828Z,94941.66
2022-09-23T01:52:07.353Z,94941.66
2022-09-23T01:53:36.722Z,94941.66
2022-09-23T01:55:08.716Z,94937.53
2022-09-23T01:56:34.224Z,94940.16
2022-09-23T01:57:40.950Z,94938.69
2022-09-23T01:58:53.914Z,94937.00
2022-09-23T02:00:01.121Z,94942.25
2022-09-23T02:01:07.188Z,94928.25
2022-09-23T02:02:19.443Z,94930.13
2022-09-23T02:03:32.429Z,94931.97
2022-09-23T02:04:57.417Z,94929.31
2022-09-23T02:06:05.223Z,94931.56
2022-09-23T02:07:29.907Z,94931.69
2022-09-23T02:08:31.565Z,94924.66
2022-09-23T02:09:39.886Z,94932.28
2022-09-23T02:10:49.258Z,94928.00
2022-09-23T02:11:54.120Z,94931.97
2022-09-23T02:13:01.952Z,94931.56
2022-09-23T02:14:10.682Z,94928.75
2022-09-23T02:15:18.190Z,94930.47
2022-09-23T02:16:26.797Z,94932.19
2022-09-23T02:17:37.111Z,94932.19
2022-09-23T02:18:47.612Z,94928.59
2022-09-23T02:19:57.584Z,94931.63
2022-09-23T02:21:05.679Z,94926.78
2022-09-23T02:22:23.529Z,94921.19
2022-09-23T02:23:34.216Z,94926.59
2022-09-23T02:24:39.228Z,94928.81
2022-09-23T02:26:05.291Z,94934.97
2022-09-23T02:27:33.295Z,94930.47
2022-09-23T02:28:50.100Z,94928.97
2022-09-23T02:29:55.411Z,94928.59
2022-09-23T02:31:27.750Z,94930.19
2022-09-23T02:32:36.337Z,94931.56
2022-09-23T02:33:52.906Z,94928.34
2022-09-23T02:35:19.882Z,94923.09
2022-09-23T02:36:21.740Z,94932.84
2022-09-23T02:37:37.213Z,94931.13
2022-09-23T02:38:46.296Z,94925.75
2022-09-23T02:39:59.748Z,94923.31
2022-09-23T02:41:28.457Z,94924.25
2022-09-23T02:43:04.090Z,94917.72
2022-09-23T02:44:10.211Z,94932.28
2022-09-23T02:45:11.821Z,94926.38
2022-09-23T02:46:13.412Z,94931.56
2022-09-23T02:47:18.220Z,94924.66
2022-09-23T02:48:29.296Z,94931.97
2022-09-23T02:49:32.293Z,94933.66
2022-09-23T02:50:34.547Z,94939.25
2022-09-23T02:51:37.757Z,94930.13
2022-09-23T02:52:39.431Z,94931.84
2022-09-23T02:53:41.018Z,94937.22
2022-09-23T02:54:42.568Z,94936.13
2022-09-23T02:55:44.441Z,94942.47
2022-09-23T02:56:48.290Z,94941.72
2022-09-23T02:57:50.179Z,94935.38
2022-09-23T02:58:54.318Z,94939.44
2022-09-23T02:59:56.026Z,94939.09
2022-09-23T03:01:09.107Z,94940.97
2022-09-23T03:02:20.638Z,94943.75
2022-09-23T03:03:33.563Z,94942.47
2022-09-23T03:04:51.340Z,94944.19
2022-09-23T03:05:58.936Z,94943.44
2022-09-23T03:07:15.671Z,94940.97
2022-09-23T03:08:45.490Z,94937.97
2022-09-23T03:09:56.190Z,94945.03
2022-09-23T03:11:08.890Z,94949.13
2022-09-23T03:12:35.990Z,94946.91
2022-09-23T03:13:46.914Z,94940.41
2022-09-23T03:14:58.405Z,94940.56
2022-09-23T03:16:09.151Z,94945.94
2022-09-23T03:17:21.910Z,94944.84
2022-09-23T03:18:35.030Z,94933.84
2022-09-23T03:19:46.048Z,94946.56
2022-09-23T03:20:52.646Z,94939.09
2022-09-23T03:22:02.944Z,94938.16
2022-09-23T03:23:08.976Z,94943.75
2022-09-23T03:24:14.458Z,94935.56
2022-09-23T03:25:21.291Z,94941.72
2022-09-23T03:26:29.692Z,94933.84
2022-09-23T03:27:34.603Z,94941.16
2022-09-23T03:28:38.460Z,94941.41
2022-09-23T03:29:45.594Z,94944.50
2022-09-23T03:30:52.512Z,94934.25
2022-09-23T03:31:55.789Z,94934.25
2022-09-23T03:33:00.205Z,94938.38
2022-09-23T03:34:05.458Z,94935.06
2022-09-23T03:35:07.649Z,94934.50
2022-09-23T03:36:30.983Z,94932.78
2022-09-23T03:37:39.336Z,94936.13
2022-09-23T03:38:45.362Z,94935.38
2022-09-23T03:40:03.038Z,94935.72
2022-09-23T03:41:08.542Z,94940.41
2022-09-23T03:42:16.994Z,94940.56
2022-09-23T03:43:18.862Z,94943.22
2022-09-23T03:44:21.614Z,94935.38
2022-09-23T03:45:28.054Z,94942.06
2022-09-23T03:46:30.274Z,94931.28
2022-09-23T03:47:32.061Z,94931.63
2022-09-23T03:48:33.627Z,94935.16
2022-09-23T03:49:37.851Z,94931.63
2022-09-23T03:50:39.424Z,94933.09
2022-09-23T03:51:44.484Z,94935.91
2022-09-23T03:52:47.484Z,94931.63
2022-09-23T03:53:49.219Z,94935.91
2022-09-23T03:54:52.097Z,94931.63
2022-09-23T03:55:53.656Z,94939.25
2022-09-23T03:56:57.718Z,94939.44
2022-09-23T03:58:00.280Z,94941.72
2022-09-23T03:59:01.954Z,94942.47
2022-09-23T04:00:06.722Z,94946.56
2022-09-23T04:01:08.391Z,94945.94
2022-09-23T04:02:10.355Z,94942.94
2022-09-23T04:03:12.116Z,94935.66
2022-09-23T04:04:13.707Z,94951.34
2022-09-23T04:05:15.390Z,94954.31
2022-09-23T04:06:16.929Z,94955.63
2022-09-23T04:07:18.929Z,94951.13
2022-09-23T04:08:20.517Z,94948.66
2022-09-23T04:09:23.073Z,94949.22
2022-09-23T04:10:24.595Z,94947.16
2022-09-23T04:11:26.111Z,94955.13
2022-09-23T04:12:27.646Z,94951.19
2022-09-23T04:13:29.491Z,94951.59
2022-09-23T04:14:31.152Z,94955.13
2022-09-23T04:15:32.664Z,94952.34
2022-09-23T04:16:34.400Z,94953.84
2022-09-23T04:17:35.992Z,94954.91
2022-09-23T04:18:37.834Z,94964.59
2022-09-23T04:19:39.588Z,94962.38
2022-09-23T04:20:41.106Z,94954.50
2022-09-23T04:21:43.975Z,94963.44
2022-09-23T04:22:45.560Z,94961.94
2022-09-23T04:23:47.079Z,94962.16
2022-09-23T04:24:49.261Z,94975.38
2022-09-23T04:25:50.818Z,94963.97
2022-09-23T04:26:53.664Z,94963.03
2022-09-23T04:27:55.439Z,94972.34
2022-09-23T04:28:57.066Z,94964.53
2022-09-23T04:29:58.607Z,94967.53
2022-09-23T04:31:04.584Z,94972.16
2022-09-23T04:32:06.302Z,94970.53
2022-09-23T04:33:08.623Z,94967.53
2022-09-23T04:34:10.463Z,94973.53
2022-09-23T04:35:11.991Z,94979.88
2022-09-23T04:36:13.582Z,94973.53
2022-09-23T04:37:15.116Z,94981.72
2022-09-23T04:38:16.697Z,94981.50
2022-09-23T04:39:18.283Z,94974.63
2022-09-23T04:40:19.810Z,94977.59
2022-09-23T04:41:21.369Z,94981.72
2022-09-23T04:42:22.957Z,94976.13
2022-09-23T04:43:24.697Z,94988.59
2022-09-23T04:44:28.132Z,94992.88
2022-09-23T04:45:30.467Z,94989.13
2022-09-23T04:46:32.038Z,94987.63
2022-09-23T04:47:33.644Z,94990.97
2022-09-23T04:48:40.078Z,94986.47
2022-09-23T04:49:41.677Z,95002.16
2022-09-23T04:50:43.193Z,94993.53
2022-09-23T04:51:45.035Z,94990.97
2022-09-23T04:52:46.812Z,94996.97
2022-09-23T04:53:49.969Z,94998.47
2022-09-23T04:54:51.504Z,94994.38
2022-09-23T04:55:53.024Z,94998.69
2022-09-23T04:56:54.555Z,94995.91
2022-09-23T04:57:56.539Z,95004.28
2022-09-23T04:58:58.700Z,94997.16
2022-09-23T05:00:01.151Z,94998.06
2022-09-23T05:01:13.009Z,95007.75
2022-09-23T05:02:15.359Z,95002.56
2022-09-23T05:03:17.137Z,95004.06
2022-09-23T05:04:18.666Z,95003.66
2022-09-23T05:05:21.118Z,95002.91
2022-09-23T05:06:23.161Z,95002.56
2022-09-23T05:07:25.222Z,95001.41
2022-09-23T05:08:26.792Z,95006.44
2022-09-23T05:09:28.344Z,95004.06
2022-09-23T05:10:29.881Z,95007.41
2022-09-23T05:11:31.839Z,95003.72
2022-09-23T05:12:33.419Z,95006.53
2022-09-23T05:13:35.450Z,95014.34
2022-09-23T05:14:38.873Z,95004.47
2022-09-23T05:15:40.396Z,95004.19
2022-09-23T05:16:42.026Z,95000.72
2022-09-23T05:17:43.581Z,95007.75
2022-09-23T05:18:46.375Z,95012.44
2022-09-23T05:19:47.960Z,95012.88
2022-09-23T05:20:56.010Z,95007.06
2022-09-23T05:21:57.547Z,95002.97
2022-09-23T05:22:59.560Z,95010.06
2022-09-23T05:24:01.316Z,95015.25
2022-09-23T05:25:03.438Z,95012.66
2022-09-23T05:26:07.847Z,95017.47
2022-09-23T05:27:09.420Z,95015.25
2022-09-23T05:28:10.957Z,95015.66
2022-09-23T05:29:12.506Z,95015.31
2022-09-23T05:30:14.163Z,95015.66
2022-09-23T05:31:20.563Z,95016.97
2022-09-23T05:32:22.472Z,95018.88
2022-09-23T05:33:23.990Z,95009.81
2022-09-23T05:34:25.490Z,95015.91
2022-09-23T05:35:27.042Z,95025.69
2022-09-23T05:36:34.217Z,95023.56
2022-09-23T05:37:38.318Z,95021.06
2022-09-23T05:38:40.333Z,95018.53
2022-09-23T05:39:41.873Z,95016.53
2022-09-23T05:40:43.705Z,95016.41
2022-09-23T05:41:46.475Z,95013.09
2022-09-23T05:42:47.993Z,95012.81
2022-09-23T05:43:51.676Z,95026.56
2022-09-23T05:44:53.193Z,95015.75
2022-09-23T05:46:08.668Z,95024.91
2022-09-23T05:47:10.271Z,95021.25
2022-09-23T05:48:11.946Z,95017.56
2022-09-23T05:49:13.493Z,95012.00
2022-09-23T05:50:15.029Z,95022.44
2022-09-23T05:51:20.103Z,95019.44
2022-09-23T05:52:21.642Z,95017.03
2022-09-23T05:53:23.223Z,95019.84
2022-09-23T05:54:24.733Z,95014.44
2022-09-23T05:55:27.048Z,95018.00
2022-09-23T05:56:29.266Z,95018.34
2022-09-23T05:57:30.859Z,95015.34
2022-09-23T05:58:32.551Z,95015.97
2022-09-23T05:59:34.074Z,95008.59
2022-09-23T06:00:35.664Z,95010.41
2022-09-23T06:01:38.569Z,95006.94
2022-09-23T06:02:40.353Z,95012.59
2022-09-23T06:03:41.942Z,95007.75
2022-09-23T06:04:44.023Z,95015.81
2022-09-23T06:05:46.293Z,94997.41
2022-09-23T06:06:47.854Z,95013.84
2022-09-23T06:07:49.452Z,95007.56
2022-09-23T06:08:51.295Z,95003.81
2022-09-23T06:09:53.980Z,95002.22
2022-09-23T06:10:56.233Z,95007.56
2022-09-23T06:11:57.765Z,95000.50
2022-09-23T06:12:59.301Z,95001.56
2022-09-23T06:14:02.033Z,94997.81
2022-09-23T06:15:04.051Z,95003.28
2022-09-23T06:16:13.033Z,95005.47
2022-09-23T06:17:14.622Z,95006.41
2022-09-23T06:18:17.250Z,94996.88
2022-09-23T06:19:18.832Z,95002.97
2022-09-23T06:20:20.556Z,95000.00
2022-09-23T06:21:22.242Z,95001.38
2022-09-23T06:22:25.191Z,95003.97
2022-09-23T06:23:26.822Z,95006.09
2022-09-23T06:24:31.231Z,95011.44
2022-09-23T06:25:34.447Z,95009.44
2022-09-23T06:26:38.262Z,95004.16
2022-09-23T06:27:39.807Z,94999.53
2022-09-23T06:28:43.056Z,95001.81
2022-09-23T06:29:44.618Z,95003.94
2022-09-23T06:30:46.177Z,95004.91
2022-09-23T06:31:49.806Z,94997.06
2022-09-23T06:32:54.071Z,94990.41
2022-09-23T06:34:05.181Z,94993.66
2022-09-23T06:35:23.574Z,94994.38
2022-09-23T06:36:40.362Z,94996.63
2022-09-23T06:37:44.830Z,94994.59
2022-09-23T06:38:49.280Z,95002.53
2022-09-23T06:39:51.014Z,94997.72
2022-09-23T06:40:55.101Z,94998.34
2022-09-23T06:41:56.696Z,94998.41
2022-09-23T06:42:59.626Z,95002.59
2022-09-23T06:44:01.428Z,95000.34
2022-09-23T06:45:03.090Z,95005.78
2022-09-23T06:46:07.343Z,95002.47
2022-09-23T06:47:09.279Z,94999.16
2022-09-23T06:48:11.495Z,95007.41
2022-09-23T06:49:13.577Z,95005.16
2022-09-23T06:50:15.260Z,94996.34
2022-09-23T06:51:19.845Z,95007.59
2022-09-23T06:52:21.425Z,95000.22
2022-09-23T06:53:23.701Z,95003.63
2022-09-23T06:54:28.380Z,95010.25
2022-09-23T06:55:30.127Z,95007.13
2022-09-23T06:56:36.373Z,95009.47
2022-09-23T06:57:41.579Z,95012.16
2022-09-23T06:58:43.149Z,95006.59
2022-09-23T06:59:44.952Z,95011.28
2022-09-23T07:00:46.515Z,95013.84
2022-09-23T07:01:48.498Z,95028.16
2022-09-23T07:02:50.275Z,95015.19
2022-09-23T07:03:52.086Z,95027.59
2022-09-23T07:04:57.443Z,95026.38
2022-09-23T07:05:59.585Z,95023.84
2022-09-23T07:07:01.129Z,95028.81
2022-09-23T07:08:03.342Z,95025.63
2022-09-23T07:09:07.522Z,95030.44
2022-09-23T07:10:11.063Z,95029.47
2022-09-23T07:11:13.378Z,95035.25
2022-09-23T07:12:15.124Z,95029.69
2022-09-23T07:13:16.668Z,95032.84
2022-09-23T07:14:18.202Z,95024.13
2022-09-23T07:15:19.785Z,95026.50
2022-09-23T07:16:21.575Z,95034.97
2022-09-23T07:17:26.577Z,95032.22
2022-09-23T07:18:35.623Z,95027.81
2022-09-23T07:19:38.176Z,95032.56
2022-09-23T07:20:39.718Z,95026.38
2022-09-23T07:21:41.338Z,95029.09
2022-09-23T07:22:44.129Z,95029.69
2022-09-23T07:23:50.368Z,95031.94
2022-09-23T07:24:56.062Z,95029.09
2022-09-23T07:25:59.162Z,95033.31
2022-09-23T07:27:00.919Z,95030.97
2022-09-23T07:28:02.581Z,95038.69
2022-09-23T07:29:06.778Z,95033.97
2022-09-23T07:30:17.841Z,95039.38
2022-09-23T07:31:37.189Z,95039.94
2022-09-23T07:32:47.955Z,95040.22
2022-09-23T07:33:50.213Z,95037.94
2022-09-23T07:34:51.845Z,95043.47
2022-09-23T07:35:53.392Z,95045.66
2022-09-23T07:36:54.936Z,95047.28
2022-09-23T07:37:56.516Z,95053.34
2022-09-23T07:39:03.297Z,95054.06
2022-09-23T07:40:05.384Z,95040.91
2022-09-23T07:41:10.867Z,95050.00
2022-09-23T07:42:14.258Z,95051.56
2022-09-23T07:43:15.781Z,95041.72
2022-09-23T07:44:20.239Z,95043.03
2022-09-23T07:45:22.569Z,95050.97
2022-09-23T07:46:28.882Z,95052.25
2022-09-23T07:47:31.537Z,95050.31
2022-09-23T07:48:34.668Z,95053.22
2022-09-23T07:49:36.868Z,95048.50
2022-09-23T07:50:39.846Z,95050.47
2022-09-23T07:51:45.976Z,95050.34
2022-09-23T07:52:47.656Z,95055.06
2022-09-23T07:53:51.210Z,95055.47
2022-09-23T07:54:52.734Z,95045.28
2022-09-23T07:55:55.821Z,95050.53
2022-09-23T07:56:58.375Z,95049.66
2022-09-23T07:57:59.885Z,95046.34
2022-09-23T07:59:01.811Z,95040.63
2022-09-23T08:00:04.749Z,95039.34
2022-09-23T08:01:09.036Z,95047.94
2022-09-23T08:02:12.260Z,95047.63
2022-09-23T08:03:15.034Z,95051.38
2022-09-23T08:04:28.240Z,95044.69
2022-09-23T08:05:29.776Z,95046.63
2022-09-23T08:06:32.307Z,95042.31
2022-09-23T08:07:34.520Z,95052.41
2022-09-23T08:08:40.364Z,95057.47
2022-09-23T08:09:43.817Z,95052.63
2022-09-23T08:10:45.925Z,95053.38
2022-09-23T08:11:49.206Z,95054.53
2022-09-23T08:12:50.738Z,95047.66
2022-09-23T08:13:53.225Z,95053.25
2022-09-23T08:14:55.115Z,95046.38
2022-09-23T08:15:57.042Z,95045.28
2022-09-23T08:16:58.597Z,95045.69
2022-09-23T08:18:00.906Z,95047.41
2022-09-23T08:19:02.801Z,95046.91
2022-09-23T08:20:04.836Z,95049.44
2022-09-23T08:21:06.353Z,95044.84
2022-09-23T08:22:08.036Z,95037.22
2022-09-23T08:23:09.910Z,95042.81
2022-09-23T08:24:14.876Z,95040.50
2022-09-23T08:25:20.354Z,95046.09
2022-09-23T08:26:23.452Z,95047.66
2022-09-23T08:27:24.982Z,95042.81
2022-09-23T08:28:27.103Z,95040.75
2022-09-23T08:29:28.662Z,95037.97
2022-09-23T08:30:30.884Z,95043.56
2022-09-23T08:31:32.596Z,95040.94
2022-09-23T08:32:34.362Z,95040.41
2022-09-23T08:33:35.903Z,95048.06
2022-09-23T08:34:37.439Z,95045.25
2022-09-23T08:35:39.456Z,95039.88
2022-09-23T08:36:41.043Z,95043.97
2022-09-23T08:37:42.565Z,95046.22
2022-09-23T08:38:44.144Z,95040.84
2022-09-23T08:39:45.665Z,95034.69
2022-09-23T08:40:49.531Z,95029.09
2022-09-23T08:41:59.014Z,95041.78
2022-09-23T08:43:01.035Z,95046.09
2022-09-23T08:44:09.365Z,95041.78
2022-09-23T08:45:29.086Z,95045.69
2022-09-23T08:46:41.510Z,95039.53
2022-09-23T08:48:01.841Z,95041.78
2022-09-23T08:49:07.304Z,95037.88
2022-09-23T08:50:22.018Z,95045.53
2022-09-23T08:51:33.720Z,95034.34
2022-09-23T08:52:58.139Z,95040.50
2022-09-23T08:54:00.036Z,95040.34
2022-09-23T08:55:03.791Z,95038.84
2022-09-23T08:56:21.549Z,95047.38
2022-09-23T08:58:23.471Z,95038.44
2022-09-23T08:59:35.465Z,95035.88
2022-09-23T09:00:42.067Z,95038.84
2022-09-23T09:01:50.089Z,95038.31
2022-09-23T09:02:53.584Z,95035.91
2022-09-23T09:04:01.858Z,95025.84
2022-09-23T09:05:10.086Z,95025.09
2022-09-23T09:06:26.422Z,95031.44
2022-09-23T09:07:37.947Z,95031.84
2022-09-23T09:08:40.584Z,95033.34
2022-09-23T09:09:50.572Z,95035.16
2022-09-23T09:10:55.196Z,95031.84
2022-09-23T09:12:04.908Z,95031.09
2022-09-23T09:13:23.812Z,95028.50
2022-09-23T09:14:37.145Z,95021.41
2022-09-23T09:16:08.462Z,95031.09
2022-09-23T09:17:24.878Z,95031.16
2022-09-23T09:18:31.225Z,95035.25
2022-09-23T09:19:56.412Z,95034.84
2022-09-23T09:21:05.323Z,95042.53
2022-09-23T09:22:17.893Z,95046.84
2022-09-23T09:23:31.812Z,95032.66
2022-09-23T09:24:35.296Z,95044.25
2022-09-23T09:25:43.298Z,95037.50
2022-09-23T09:26:45.198Z,95038.66
2022-09-23T09:27:47.708Z,95028.97
2022-09-23T09:29:02.528Z,95029.84
2022-09-23T09:30:19.805Z,95030.47
2022-09-23T09:31:29.227Z,95031.56
2022-09-23T09:32:46.227Z,95032.66
2022-09-23T09:34:17.156Z,95028.91
2022-09-23T09:35:37.768Z,95032.66
2022-09-23T09:36:58.143Z,95033.41
2022-09-23T09:37:59.786Z,95030.28
2022-09-23T09:39:01.739Z,95037.34
2022-09-23T09:40:03.698Z,95038.66
2022-09-23T09:41:13.959Z,95026.84
2022-09-23T09:42:22.643Z,95033.41
2022-09-23T09:43:24.179Z,95028.78
2022-09-23T09:44:38.259Z,95028.16
2022-09-23T09:45:59.161Z,95036.75
2022-09-23T09:47:28.438Z,95039.56
2022-09-23T09:48:53.763Z,95036.75
2022-09-23T09:50:07.249Z,95028.56
2022-09-23T09:51:21.543Z,95028.38
2022-09-23T09:52:29.786Z,95028.03
2022-09-23T09:53:35.894Z,95032.31
2022-09-23T09:54:39.140Z,95036.41
2022-09-23T09:55:41.515Z,95037.16
2022-09-23T09:56:44.482Z,95020.38
2022-09-23T09:57:57.432Z,95036.75
2022-09-23T09:59:01.890Z,95027.47
2022-09-23T10:00:26.763Z,95030.06
2022-09-23T10:01:32.773Z,95020.44
2022-09-23T10:02:37.276Z,95033.47
2022-09-23T10:03:43.532Z,95027.66
2022-09-23T10:04:45.328Z,95026.78
2022-09-23T10:05:52.291Z,95016.47
2022-09-23T10:07:05.370Z,95013.69
2022-09-23T10:08:19.295Z,95020.03
2022-09-23T10:09:22.080Z,95018.59
2022-09-23T10:10:33.717Z,95013.00
2022-09-23T10:11:35.943Z,95022.00
2022-09-23T10:12:46.797Z,95013.22
2022-09-23T10:14:17.797Z,95023.44
2022-09-23T10:15:33.987Z,95023.09
2022-09-23T10:16:36.068Z,95028.69
2022-09-23T10:17:39.176Z,95025.69
2022-09-23T10:18:46.920Z,95029.03
2022-09-23T10:19:55.618Z,95016.75
2022-09-23T10:21:08.906Z,95018.59
2022-09-23T10:22:19.883Z,95021.38
2022-09-23T10:23:27.572Z,95012.66
2022-09-23T10:24:32.260Z,95014.91
2022-09-23T10:25:35.190Z,95015.09
2022-09-23T10:26:50.523Z,95011.16
2022-09-23T10:27:52.391Z,95005.97
2022-09-23T10:28:55.680Z,95006.72
2022-09-23T10:30:03.620Z,95001.13
2022-09-23T10:31:08.726Z,95012.72
2022-09-23T10:32:20.657Z,95005.63
2022-09-23T10:33:28.014Z,94995.16
2022-09-23T10:34:33.877Z,95003.00
2022-09-23T10:35:35.821Z,95001.50
2022-09-23T10:36:40.117Z,95007.31
2022-09-23T10:37:54.373Z,95008.41
2022-09-23T10:39:19.576Z,95009.91
2022-09-23T10:40:48.872Z,95006.03
2022-09-23T10:42:31.714Z,94995.91
2022-09-23T10:43:51.661Z,95004.94
2022-09-23T10:45:39.719Z,94998.94
2022-09-23T10:46:59.566Z,94992.59
2022-09-23T10:48:24.071Z,94998.53
2022-09-23T10:49:37.867Z,95001.13
2022-09-23T10:50:48.682Z,95004.13
2022-09-23T10:52:08.513Z,95001.13
2022-09-23T10:53:39.793Z,94988.03
2022-09-23T10:55:36.968Z,94996.81
2022-09-23T10:56:48.573Z,94991.06
2022-09-23T10:58:36.576Z,95001.50
2022-09-23T11:00:01.432Z,94986.66
2022-09-23T11:01:21.680Z,94993.53
2022-09-23T11:02:56.968Z,94985.34
2022-09-23T11:04:31.619Z,94988.94
2022-09-23T11:05:49.077Z,94992.53
2022-09-23T11:07:07.298Z,94990.47
2022-09-23T11:08:18.311Z,94992.72
2022-09-23T11:09:47.391Z,94986.53
2022-09-23T11:10:59.515Z,94980.16
2022-09-23T11:12:17.918Z,94980.94
2022-09-23T11:13:57.077Z,94975.34
2022-09-23T11:15:37.471Z,94968.97
2022-09-23T11:17:05.825Z,94970.50
2022-09-23T11:18:16.727Z,94974.22
2022-09-23T11:19:35.467Z,94967.13
2022-09-23T11:20:49.154Z,94964.19
2022-09-23T11:22:09.389Z,94958.38
2022-09-23T11:23:29.505Z,94964.72
2022-09-23T11:25:05.093Z,94963.03
2022-09-23T11:26:29.117Z,94958.75
2022-09-23T11:28:12.126Z,94961.94
2022-09-23T11:29:16.335Z,94967.41
2022-09-23T11:30:21.259Z,94959.34
2022-09-23T11:31:28.987Z,94957.84
2022-09-23T11:32:56.769Z,94968.84
2022-09-23T11:34:07.840Z,94963.81
2022-09-23T11:35:19.444Z,94966.38
2022-09-23T11:36:30.513Z,94965.63
2022-09-23T11:37:39.471Z,94970.16
2022-09-23T11:38:46.509Z,94957.03
2022-09-23T11:40:19.121Z,94964.50
2022-09-23T11:41:34.525Z,94952.75
2022-09-23T11:42:45.965Z,94955.19
2022-09-23T11:43:52.842Z,94951.66
2022-09-23T11:45:15.925Z,94955.19
2022-09-23T11:46:23.473Z,94955.25
2022-09-23T11:47:42.476Z,94952.22
2022-09-23T11:48:52.963Z,94948.34
2022-09-23T11:50:00.042Z,94944.44
2022-09-23T11:51:16.712Z,94949.66
2022-09-23T11:52:20.988Z,94949.50
2022-09-23T11:53:31.532Z,94947.47
2022-09-23T11:55:00.514Z,94940.69
2022-09-23T11:56:10.256Z,94946.91
2022-09-23T11:57:49.377Z,94940.91
2022-09-23T11:59:01.133Z,94940.34
2022-09-23T12:00:19.631Z,94947.03
2022-09-23T12:01:37.866Z,94940.91
2022-09-23T12:03:00.035Z,94937.53
2022-09-23T12:04:19.887Z,94945.75
2022-09-23T12:05:30.624Z,94947.25
2022-09-23T12:07:03.350Z,94942.56
2022-09-23T12:08:07.168Z,94939.06
2022-09-23T12:09:35.772Z,94947.25
2022-09-23T12:11:19.109Z,94936.66
2022-09-23T12:12:47.713Z,94944.50
2022-09-23T12:13:49.185Z,94945.25
2022-09-23T12:15:04.570Z,94941.09
2022-09-23T12:16:25.047Z,94938.09
2022-09-23T12:17:35.483Z,94936.28
2022-09-23T12:18:55.475Z,94927.72
2022-09-23T12:20:16.192Z,94938.16
2022-09-23T12:21:51.536Z,94938.28
2022-09-23T12:22:59.125Z,94930.84
2022-09-23T12:24:20.173Z,94945.25
2022-09-23T12:25:37.946Z,94945.59
2022-09-23T12:26:39.840Z,94929.94
2022-09-23T12:27:45.870Z,94927.50
2022-09-23T12:28:50.887Z,94928.44
2022-09-23T12:29:58.693Z,94932.56
2022-09-23T12:31:02.095Z,94931.47
2022-09-23T12:32:09.927Z,94927.34
2022-09-23T12:33:21.983Z,94926.63
2022-09-23T12:34:30.012Z,94929.16
2022-09-23T12:35:38.455Z,94920.97
2022-09-23T12:36:40.029Z,94917.81
2022-09-23T12:37:41.901Z,94917.06
2022-09-23T12:38:58.197Z,94926.34
2022-09-23T12:40:06.439Z,94927.25
2022-09-23T12:41:37.432Z,94916.78
2022-09-23T12:42:46.360Z,94917.56
2022-09-23T12:44:11.083Z,94917.22
2022-09-23T12:45:19.239Z,94926.16
2022-09-23T12:46:27.374Z,94916.50
2022-09-23T12:47:38.148Z,94921.91
2022-09-23T12:48:59.964Z,94918.34
2022-09-23T12:50:01.630Z,94915.78
2022-09-23T12:51:03.077Z,94929.19
2022-09-23T12:52:16.734Z,94919.78
2022-09-23T12:53:47.397Z,94925.91
2022-09-23T12:54:50.724Z,94927.25
2022-09-23T12:55:54.283Z,94923.91
2022-09-23T12:56:55.956Z,94923.91
2022-09-23T12:57:57.673Z,94929.84
2022-09-23T12:59:20.632Z,94938.06
2022-09-23T13:00:26.462Z,94936.75
2022-09-23T13:01:37.320Z,94936.16
2022-09-23T13:02:43.672Z,94936.75
2022-09-23T13:04:09.258Z,94937.84
2022-09-23T13:05:32.252Z,94939.56
2022-09-23T13:06:47.290Z,94934.88
2022-09-23T13:07:50.495Z,94932.47
2022-09-23T13:08:52.832Z,94928.34
2022-09-23T13:10:06.066Z,94938.25
2022-09-23T13:11:25.818Z,94940.66
2022-09-23T13:12:38.952Z,94937.84
2022-09-23T13:13:44.393Z,94942.16
2022-09-23T13:14:49.827Z,94938.06
2022-09-23T13:15:54.047Z,94950.75
2022-09-23T13:16:58.466Z,94936.75
2022-09-23T13:18:52.518Z,94945.84
2022-09-23T13:20:03.562Z,94944.75
2022-09-23T13:21:16.759Z,94943.25
2022-09-23T13:22:41.460Z,94934.88
2022-09-23T13:24:28.311Z,94938.81